Riga — LG5517 — position and weather

sailwx.info

Track history (hours):
 
Tides and Currents Weather Stations Pressure Air Temp Water Temp Dewpoint Dewpoint Depression Visibility Wind Speed Wind Dir Waves Ship Positions

Riga

Last reported at 2015-Jul-31 13:05 UTC. Time now 2015-Aug-03 10:39 UTC.
Position N 64°51' E 011°13'.

Length 13 m.

Type: Pleasure craft. MMSI: 258085340.

Date/timePositionNaut miles runAvg speedWind from/ knotsBaromVisibWave heightAir tempDewpointWater temp
2015-Jul-31 13:05N 64°51' E 011°13'1 0.1
2015-Jul-31 05:32N 64°52' E 011°14'0 0.0
2015-Jul-31 02:05N 64°52' E 011°14'91 2.6
2015-Jul-29 15:07N 66°18' E 012°24'4 7.3
2015-Jul-29 14:31N 66°22' E 012°22'0 0.0
2015-Jul-29 13:31N 66°22' E 012°22'0 0.0
2015-Jul-29 12:31N 66°22' E 012°22'0 0.0
2015-Jul-29 11:31N 66°22' E 012°22'0 0.0
2015-Jul-29 10:31N 66°22' E 012°22'0 0.0
2015-Jul-29 09:31N 66°22' E 012°22'0 0.0
2015-Jul-29 08:30N 66°22' E 012°22'0 0.0
2015-Jul-29 07:30N 66°22' E 012°22'0 0.0
2015-Jul-29 06:30N 66°22' E 012°22'0 0.0
2015-Jul-29 05:30N 66°22' E 012°22'0 0.0
2015-Jul-29 04:30N 66°22' E 012°22'0 0.0
2015-Jul-29 03:30N 66°22' E 012°22'0 0.0
2015-Jul-29 02:30N 66°22' E 012°22'0 0.0
2015-Jul-29 01:30N 66°22' E 012°22'0 0.0
2015-Jul-29 00:30N 66°22' E 012°22'0 0.0
2015-Jul-28 23:30N 66°22' E 012°22'0 0.0
2015-Jul-28 22:30N 66°22' E 012°22'0 0.0
2015-Jul-28 21:30N 66°22' E 012°22'0 0.0
2015-Jul-28 20:24N 66°22' E 012°22'0 0.0
2015-Jul-28 19:30N 66°22' E 012°22'0 0.0
2015-Jul-28 18:30N 66°22' E 012°22'0 0.0
2015-Jul-28 17:30N 66°22' E 012°22'0 0.0
2015-Jul-28 16:30N 66°22' E 012°22'0 0.0
2015-Jul-28 15:30N 66°22' E 012°22'0 0.0
2015-Jul-28 14:30N 66°22' E 012°22'0 0.0
2015-Jul-28 13:30N 66°22' E 012°22'0 0.0
2015-Jul-28 12:30N 66°22' E 012°22'0 0.0
2015-Jul-28 11:30N 66°22' E 012°22'0 0.0
2015-Jul-28 10:30N 66°22' E 012°22'0 0.0
2015-Jul-28 09:30N 66°22' E 012°22'0 0.0
2015-Jul-28 08:30N 66°22' E 012°22'0 0.0
2015-Jul-28 07:30N 66°22' E 012°22'0 0.0
2015-Jul-28 06:30N 66°22' E 012°22'0 0.0
2015-Jul-28 05:30N 66°22' E 012°22'0 0.0
2015-Jul-28 04:30N 66°22' E 012°22'0 0.0
2015-Jul-28 03:30N 66°22' E 012°22'0 0.0
2015-Jul-28 02:30N 66°22' E 012°22'0 0.0
2015-Jul-28 01:31N 66°22' E 012°22'0 0.0
2015-Jul-28 00:31N 66°22' E 012°22'0 0.0
2015-Jul-27 23:31N 66°22' E 012°22'0 0.0
2015-Jul-27 22:31N 66°22' E 012°22'0 0.0
2015-Jul-27 21:31N 66°22' E 012°22'0 0.0
2015-Jul-27 20:31N 66°22' E 012°22'0 0.0
2015-Jul-27 19:31N 66°22' E 012°22'0 0.0
2015-Jul-27 18:13N 66°22' E 012°22'0 0.0
2015-Jul-27 17:31N 66°22' E 012°22'0 0.0
2015-Jul-27 16:31N 66°22' E 012°22'0 0.0
2015-Jul-27 15:31N 66°22' E 012°22'1 0.7
2015-Jul-27 14:33N 66°23' E 012°23'6521.7
2015-Jul-27 11:33N 67°13' E 014°09'7 6.4
2015-Jul-27 10:31N 67°17' E 014°22'0 0.0
2015-Jul-27 09:31N 67°17' E 014°22'0 0.0
2015-Jul-27 08:31N 67°17' E 014°22'0 0.0
2015-Jul-27 07:31N 67°17' E 014°22'0 0.0
2015-Jul-27 06:31N 67°17' E 014°22'0 0.0
2015-Jul-27 05:31N 67°17' E 014°22'0 0.0
2015-Jul-27 04:31N 67°17' E 014°22'0 0.0
2015-Jul-27 03:31N 67°17' E 014°22'0 0.0
2015-Jul-27 02:31N 67°17' E 014°22'0 0.0
2015-Jul-27 01:31N 67°17' E 014°22'0 0.0
2015-Jul-27 00:31N 67°17' E 014°22'0 0.0
2015-Jul-26 23:31N 67°17' E 014°22'0 0.0
2015-Jul-26 22:31N 67°17' E 014°22'0 0.0
2015-Jul-26 21:31N 67°17' E 014°22'0 0.0
2015-Jul-26 20:31N 67°17' E 014°22'0 0.0
2015-Jul-26 19:31N 67°17' E 014°22'0 0.0
2015-Jul-26 18:31N 67°17' E 014°22'0 0.0
2015-Jul-26 17:31N 67°17' E 014°22'0 0.0
2015-Jul-26 16:31N 67°17' E 014°22'0 0.0
2015-Jul-26 15:31N 67°17' E 014°22'0 0.0
2015-Jul-26 14:28N 67°17' E 014°22'0 0.0
2015-Jul-26 13:31N 67°17' E 014°22'0 0.0
2015-Jul-26 12:31N 67°17' E 014°22'0 0.0
2015-Jul-26 11:31N 67°17' E 014°22'0 0.0
2015-Jul-26 10:31N 67°17' E 014°22'0 0.0
2015-Jul-26 09:31N 67°17' E 014°22'0 0.0
2015-Jul-26 08:31N 67°17' E 014°22'0 0.0
2015-Jul-26 07:31N 67°17' E 014°22'0 0.0
2015-Jul-26 06:31N 67°17' E 014°22'0 0.0
2015-Jul-26 05:31N 67°17' E 014°22'0 0.0
2015-Jul-26 04:31N 67°17' E 014°22'0 0.0
2015-Jul-26 03:31N 67°17' E 014°22'0 0.0
2015-Jul-26 02:31N 67°17' E 014°22'0 0.0
2015-Jul-26 01:31N 67°17' E 014°22'0 0.0
2015-Jul-26 00:31N 67°17' E 014°22'0 0.0
2015-Jul-25 23:31N 67°17' E 014°22'0 0.0
2015-Jul-25 22:31N 67°17' E 014°22'0 0.0
2015-Jul-25 21:31N 67°17' E 014°22'0 0.0
2015-Jul-25 20:31N 67°17' E 014°22'0 0.0
2015-Jul-25 19:31N 67°17' E 014°22'0 0.0
2015-Jul-25 18:31N 67°17' E 014°22'0 0.0
2015-Jul-25 17:31N 67°17' E 014°22'0 0.0
2015-Jul-25 16:31N 67°17' E 014°22'0 0.0
2015-Jul-25 15:31N 67°17' E 014°22'0 0.0
2015-Jul-25 14:31N 67°17' E 014°22'0 0.0
2015-Jul-25 13:31N 67°17' E 014°22'0 0.0
2015-Jul-25 12:31N 67°17' E 014°22'0 0.0
2015-Jul-25 11:31N 67°17' E 014°22'0 0.0
2015-Jul-25 10:31N 67°17' E 014°22'0 0.0
2015-Jul-25 09:31N 67°17' E 014°22'0 0.0
2015-Jul-25 08:31N 67°17' E 014°22'0 0.0
2015-Jul-25 07:31N 67°17' E 014°22'0 0.0
2015-Jul-25 06:31N 67°17' E 014°22'0 0.0
2015-Jul-25 05:31N 67°17' E 014°22'0 0.0
2015-Jul-25 04:31N 67°17' E 014°22'0 0.0
2015-Jul-25 03:31N 67°17' E 014°22'0 0.0
2015-Jul-25 02:31N 67°17' E 014°22'0 0.0
2015-Jul-25 01:31N 67°17' E 014°22'0 0.0
2015-Jul-25 00:31N 67°17' E 014°22'0 0.0
2015-Jul-24 23:31N 67°17' E 014°22'0 0.0
2015-Jul-24 22:31N 67°17' E 014°22'0 0.0
2015-Jul-24 21:31N 67°17' E 014°22'0 0.0
2015-Jul-24 20:31N 67°17' E 014°22'0 0.0
2015-Jul-24 19:31N 67°17' E 014°22'0 0.0
2015-Jul-24 18:31N 67°17' E 014°22'0 0.0
2015-Jul-24 17:31N 67°17' E 014°22'0 0.0
2015-Jul-24 16:31N 67°17' E 014°22'0 0.0
2015-Jul-24 15:31N 67°17' E 014°22'0 0.0
2015-Jul-24 14:31N 67°17' E 014°22'3 2.8
2015-Jul-24 13:33N 67°15' E 014°16'7022.7
2015-Jul-24 10:29N 66°22' E 012°22'0 0.0
2015-Jul-24 09:32N 66°22' E 012°22'0 0.0
2015-Jul-24 08:28N 66°22' E 012°22'0 0.0
2015-Jul-24 07:28N 66°22' E 012°22'0 0.0
2015-Jul-24 06:28N 66°22' E 012°22'0 0.0
2015-Jul-24 05:28N 66°22' E 012°22'0 0.0
2015-Jul-24 04:28N 66°22' E 012°22'0 0.0
2015-Jul-24 03:28N 66°22' E 012°22'0 0.0
2015-Jul-24 02:22N 66°22' E 012°22'0 0.0
2015-Jul-24 01:28N 66°22' E 012°22'0 0.0
2015-Jul-24 00:28N 66°22' E 012°22'0 0.0
2015-Jul-23 23:28N 66°22' E 012°22'0 0.0
2015-Jul-23 22:28N 66°22' E 012°22'0 0.0
2015-Jul-23 21:28N 66°22' E 012°22'0 0.0
2015-Jul-23 20:28N 66°22' E 012°22'0 0.0
2015-Jul-23 19:22N 66°22' E 012°22'0 0.0
2015-Jul-23 18:28N 66°22' E 012°22'0 0.0
2015-Jul-23 17:28N 66°22' E 012°22'0 0.0
2015-Jul-23 16:28N 66°22' E 012°22'0 0.0
2015-Jul-23 15:28N 66°22' E 012°22'0 0.0
2015-Jul-23 14:28N 66°22' E 012°22'0 0.0
2015-Jul-23 13:28N 66°22' E 012°22'0 0.0
2015-Jul-23 12:28N 66°22' E 012°22'0 0.0
2015-Jul-23 11:28N 66°22' E 012°22'0 0.0
2015-Jul-23 10:28N 66°22' E 012°22'0 0.0
2015-Jul-23 09:28N 66°22' E 012°22'0 0.0
2015-Jul-23 08:28N 66°22' E 012°22'0 0.0
2015-Jul-23 07:28N 66°22' E 012°22'0 0.0
2015-Jul-23 06:28N 66°22' E 012°22'0 0.0
2015-Jul-23 05:28N 66°22' E 012°22'0 0.0
2015-Jul-23 04:28N 66°22' E 012°22'0 0.0
2015-Jul-23 03:28N 66°22' E 012°22'0 0.0
2015-Jul-23 02:28N 66°22' E 012°22'0 0.0
2015-Jul-23 01:28N 66°22' E 012°22'0 0.0
2015-Jul-23 00:28N 66°22' E 012°22'0 0.0
2015-Jul-22 23:28N 66°22' E 012°22'0 0.0
2015-Jul-22 22:28N 66°22' E 012°22'0 0.0
2015-Jul-22 21:28N 66°22' E 012°22'0 0.0
2015-Jul-22 20:28N 66°22' E 012°22'0 0.0
2015-Jul-22 19:28N 66°22' E 012°22'0 0.0
2015-Jul-22 18:28N 66°22' E 012°22'0 0.0
2015-Jul-22 17:31N 66°22' E 012°22'0 0.0
2015-Jul-22 16:31N 66°22' E 012°22'0 0.0
2015-Jul-22 15:31N 66°22' E 012°22'0 0.0
2015-Jul-22 14:31N 66°22' E 012°22'0 0.0
2015-Jul-22 13:31N 66°22' E 012°22'0 0.0
2015-Jul-22 12:31N 66°22' E 012°22'0 0.0
2015-Jul-22 11:31N 66°22' E 012°22'0 0.0
2015-Jul-22 10:31N 66°22' E 012°22'0 0.0
2015-Jul-22 09:31N 66°22' E 012°22'0 0.0
2015-Jul-22 08:31N 66°22' E 012°22'0 0.0
2015-Jul-22 07:25N 66°22' E 012°22'0 0.0
2015-Jul-22 06:31N 66°22' E 012°22'0 0.0
2015-Jul-22 05:31N 66°22' E 012°22'0 0.0
2015-Jul-22 04:31N 66°22' E 012°22'0 0.0
2015-Jul-22 03:31N 66°22' E 012°22'0 0.0
2015-Jul-22 02:31N 66°22' E 012°22'0 0.0
2015-Jul-22 01:31N 66°22' E 012°22'0 0.0
2015-Jul-22 00:31N 66°22' E 012°22'0 0.0
2015-Jul-21 23:31N 66°22' E 012°22'0 0.0
2015-Jul-21 22:31N 66°22' E 012°22'0 0.0
2015-Jul-21 21:31N 66°22' E 012°22'0 0.0
2015-Jul-21 20:31N 66°22' E 012°22'0 0.0
2015-Jul-21 19:31N 66°22' E 012°22'0 0.0
2015-Jul-21 18:25N 66°22' E 012°22'0 0.0
2015-Jul-21 17:31N 66°22' E 012°22'0 0.0
2015-Jul-21 16:31N 66°22' E 012°22'0 0.0
2015-Jul-21 15:31N 66°22' E 012°22'0 0.0
2015-Jul-21 14:31N 66°22' E 012°22'0 0.0
2015-Jul-21 13:31N 66°22' E 012°22'  
Track history (hours):
 
Tides and Currents Weather Stations Pressure Air Temp Water Temp Dewpoint Dewpoint Depression Visibility Wind Speed Wind Dir Waves Ship Positions

Riga

Last reported at 2015-Jul-31 13:05 UTC. Time now 2015-Aug-03 10:39 UTC.
Position N 64°51' E 011°13'.

Length 13 m.

Type: Pleasure craft. MMSI: 258085340.

Date/timePositionNaut miles runAvg speedWind from/ knotsBaromVisibWave heightAir tempDewpointWater temp
2015-Jul-31 13:05N 64°51' E 011°13'1 0.1
2015-Jul-31 05:32N 64°52' E 011°14'0 0.0
2015-Jul-31 02:05N 64°52' E 011°14'91 2.6
2015-Jul-29 15:07N 66°18' E 012°24'4 7.3
2015-Jul-29 14:31N 66°22' E 012°22'0 0.0
2015-Jul-29 13:31N 66°22' E 012°22'0 0.0
2015-Jul-29 12:31N 66°22' E 012°22'0 0.0
2015-Jul-29 11:31N 66°22' E 012°22'0 0.0
2015-Jul-29 10:31N 66°22' E 012°22'0 0.0
2015-Jul-29 09:31N 66°22' E 012°22'0 0.0
2015-Jul-29 08:30N 66°22' E 012°22'0 0.0
2015-Jul-29 07:30N 66°22' E 012°22'0 0.0
2015-Jul-29 06:30N 66°22' E 012°22'0 0.0
2015-Jul-29 05:30N 66°22' E 012°22'0 0.0
2015-Jul-29 04:30N 66°22' E 012°22'0 0.0
2015-Jul-29 03:30N 66°22' E 012°22'0 0.0
2015-Jul-29 02:30N 66°22' E 012°22'0 0.0
2015-Jul-29 01:30N 66°22' E 012°22'0 0.0
2015-Jul-29 00:30N 66°22' E 012°22'0 0.0
2015-Jul-28 23:30N 66°22' E 012°22'0 0.0
2015-Jul-28 22:30N 66°22' E 012°22'0 0.0
2015-Jul-28 21:30N 66°22' E 012°22'0 0.0
2015-Jul-28 20:24N 66°22' E 012°22'0 0.0
2015-Jul-28 19:30N 66°22' E 012°22'0 0.0
2015-Jul-28 18:30N 66°22' E 012°22'0 0.0
2015-Jul-28 17:30N 66°22' E 012°22'0 0.0
2015-Jul-28 16:30N 66°22' E 012°22'0 0.0
2015-Jul-28 15:30N 66°22' E 012°22'0 0.0
2015-Jul-28 14:30N 66°22' E 012°22'0 0.0
2015-Jul-28 13:30N 66°22' E 012°22'0 0.0
2015-Jul-28 12:30N 66°22' E 012°22'0 0.0
2015-Jul-28 11:30N 66°22' E 012°22'0 0.0
2015-Jul-28 10:30N 66°22' E 012°22'0 0.0
2015-Jul-28 09:30N 66°22' E 012°22'0 0.0
2015-Jul-28 08:30N 66°22' E 012°22'0 0.0
2015-Jul-28 07:30N 66°22' E 012°22'0 0.0
2015-Jul-28 06:30N 66°22' E 012°22'0 0.0
2015-Jul-28 05:30N 66°22' E 012°22'0 0.0
2015-Jul-28 04:30N 66°22' E 012°22'0 0.0
2015-Jul-28 03:30N 66°22' E 012°22'0 0.0
2015-Jul-28 02:30N 66°22' E 012°22'0 0.0
2015-Jul-28 01:31N 66°22' E 012°22'0 0.0
2015-Jul-28 00:31N 66°22' E 012°22'0 0.0
2015-Jul-27 23:31N 66°22' E 012°22'0 0.0
2015-Jul-27 22:31N 66°22' E 012°22'0 0.0
2015-Jul-27 21:31N 66°22' E 012°22'0 0.0
2015-Jul-27 20:31N 66°22' E 012°22'0 0.0
2015-Jul-27 19:31N 66°22' E 012°22'0 0.0
2015-Jul-27 18:13N 66°22' E 012°22'0 0.0
2015-Jul-27 17:31N 66°22' E 012°22'0 0.0
2015-Jul-27 16:31N 66°22' E 012°22'0 0.0
2015-Jul-27 15:31N 66°22' E 012°22'1 0.7
2015-Jul-27 14:33N 66°23' E 012°23'6521.7
2015-Jul-27 11:33N 67°13' E 014°09'7 6.4
2015-Jul-27 10:31N 67°17' E 014°22'0 0.0
2015-Jul-27 09:31N 67°17' E 014°22'0 0.0
2015-Jul-27 08:31N 67°17' E 014°22'0 0.0
2015-Jul-27 07:31N 67°17' E 014°22'0 0.0
2015-Jul-27 06:31N 67°17' E 014°22'0 0.0
2015-Jul-27 05:31N 67°17' E 014°22'0 0.0
2015-Jul-27 04:31N 67°17' E 014°22'0 0.0
2015-Jul-27 03:31N 67°17' E 014°22'0 0.0
2015-Jul-27 02:31N 67°17' E 014°22'0 0.0
2015-Jul-27 01:31N 67°17' E 014°22'0 0.0
2015-Jul-27 00:31N 67°17' E 014°22'0 0.0
2015-Jul-26 23:31N 67°17' E 014°22'0 0.0
2015-Jul-26 22:31N 67°17' E 014°22'0 0.0
2015-Jul-26 21:31N 67°17' E 014°22'0 0.0
2015-Jul-26 20:31N 67°17' E 014°22'0 0.0
2015-Jul-26 19:31N 67°17' E 014°22'0 0.0
2015-Jul-26 18:31N 67°17' E 014°22'0 0.0
2015-Jul-26 17:31N 67°17' E 014°22'0 0.0
2015-Jul-26 16:31N 67°17' E 014°22'0 0.0
2015-Jul-26 15:31N 67°17' E 014°22'0 0.0
2015-Jul-26 14:28N 67°17' E 014°22'0 0.0
2015-Jul-26 13:31N 67°17' E 014°22'0 0.0
2015-Jul-26 12:31N 67°17' E 014°22'0 0.0
2015-Jul-26 11:31N 67°17' E 014°22'0 0.0
2015-Jul-26 10:31N 67°17' E 014°22'0 0.0
2015-Jul-26 09:31N 67°17' E 014°22'0 0.0
2015-Jul-26 08:31N 67°17' E 014°22'0 0.0
2015-Jul-26 07:31N 67°17' E 014°22'0 0.0
2015-Jul-26 06:31N 67°17' E 014°22'0 0.0
2015-Jul-26 05:31N 67°17' E 014°22'0 0.0
2015-Jul-26 04:31N 67°17' E 014°22'0 0.0
2015-Jul-26 03:31N 67°17' E 014°22'0 0.0
2015-Jul-26 02:31N 67°17' E 014°22'0 0.0
2015-Jul-26 01:31N 67°17' E 014°22'0 0.0
2015-Jul-26 00:31N 67°17' E 014°22'0 0.0
2015-Jul-25 23:31N 67°17' E 014°22'0 0.0
2015-Jul-25 22:31N 67°17' E 014°22'0 0.0
2015-Jul-25 21:31N 67°17' E 014°22'0 0.0
2015-Jul-25 20:31N 67°17' E 014°22'0 0.0
2015-Jul-25 19:31N 67°17' E 014°22'0 0.0
2015-Jul-25 18:31N 67°17' E 014°22'0 0.0
2015-Jul-25 17:31N 67°17' E 014°22'0 0.0
2015-Jul-25 16:31N 67°17' E 014°22'0 0.0
2015-Jul-25 15:31N 67°17' E 014°22'0 0.0
2015-Jul-25 14:31N 67°17' E 014°22'0 0.0
2015-Jul-25 13:31N 67°17' E 014°22'0 0.0
2015-Jul-25 12:31N 67°17' E 014°22'0 0.0
2015-Jul-25 11:31N 67°17' E 014°22'0 0.0
2015-Jul-25 10:31N 67°17' E 014°22'0 0.0
2015-Jul-25 09:31N 67°17' E 014°22'0 0.0
2015-Jul-25 08:31N 67°17' E 014°22'0 0.0
2015-Jul-25 07:31N 67°17' E 014°22'0 0.0
2015-Jul-25 06:31N 67°17' E 014°22'0 0.0
2015-Jul-25 05:31N 67°17' E 014°22'0 0.0
2015-Jul-25 04:31N 67°17' E 014°22'0 0.0
2015-Jul-25 03:31N 67°17' E 014°22'0 0.0
2015-Jul-25 02:31N 67°17' E 014°22'0 0.0
2015-Jul-25 01:31N 67°17' E 014°22'0 0.0
2015-Jul-25 00:31N 67°17' E 014°22'0 0.0
2015-Jul-24 23:31N 67°17' E 014°22'0 0.0
2015-Jul-24 22:31N 67°17' E 014°22'0 0.0
2015-Jul-24 21:31N 67°17' E 014°22'0 0.0
2015-Jul-24 20:31N 67°17' E 014°22'0 0.0
2015-Jul-24 19:31N 67°17' E 014°22'0 0.0
2015-Jul-24 18:31N 67°17' E 014°22'0 0.0
2015-Jul-24 17:31N 67°17' E 014°22'0 0.0
2015-Jul-24 16:31N 67°17' E 014°22'0 0.0
2015-Jul-24 15:31N 67°17' E 014°22'0 0.0
2015-Jul-24 14:31N 67°17' E 014°22'3 2.8
2015-Jul-24 13:33N 67°15' E 014°16'7022.7
2015-Jul-24 10:29N 66°22' E 012°22'0 0.0
2015-Jul-24 09:32N 66°22' E 012°22'0 0.0
2015-Jul-24 08:28N 66°22' E 012°22'0 0.0
2015-Jul-24 07:28N 66°22' E 012°22'0 0.0
2015-Jul-24 06:28N 66°22' E 012°22'0 0.0
2015-Jul-24 05:28N 66°22' E 012°22'0 0.0
2015-Jul-24 04:28N 66°22' E 012°22'0 0.0
2015-Jul-24 03:28N 66°22' E 012°22'0 0.0
2015-Jul-24 02:22N 66°22' E 012°22'0 0.0
2015-Jul-24 01:28N 66°22' E 012°22'0 0.0
2015-Jul-24 00:28N 66°22' E 012°22'0 0.0
2015-Jul-23 23:28N 66°22' E 012°22'0 0.0
2015-Jul-23 22:28N 66°22' E 012°22'0 0.0
2015-Jul-23 21:28N 66°22' E 012°22'0 0.0
2015-Jul-23 20:28N 66°22' E 012°22'0 0.0
2015-Jul-23 19:22N 66°22' E 012°22'0 0.0
2015-Jul-23 18:28N 66°22' E 012°22'0 0.0
2015-Jul-23 17:28N 66°22' E 012°22'0 0.0
2015-Jul-23 16:28N 66°22' E 012°22'0 0.0
2015-Jul-23 15:28N 66°22' E 012°22'0 0.0
2015-Jul-23 14:28N 66°22' E 012°22'0 0.0
2015-Jul-23 13:28N 66°22' E 012°22'0 0.0
2015-Jul-23 12:28N 66°22' E 012°22'0 0.0
2015-Jul-23 11:28N 66°22' E 012°22'0 0.0
2015-Jul-23 10:28N 66°22' E 012°22'0 0.0
2015-Jul-23 09:28N 66°22' E 012°22'0 0.0
2015-Jul-23 08:28N 66°22' E 012°22'0 0.0
2015-Jul-23 07:28N 66°22' E 012°22'0 0.0
2015-Jul-23 06:28N 66°22' E 012°22'0 0.0
2015-Jul-23 05:28N 66°22' E 012°22'0 0.0
2015-Jul-23 04:28N 66°22' E 012°22'0 0.0
2015-Jul-23 03:28N 66°22' E 012°22'0 0.0
2015-Jul-23 02:28N 66°22' E 012°22'0 0.0
2015-Jul-23 01:28N 66°22' E 012°22'0 0.0
2015-Jul-23 00:28N 66°22' E 012°22'0 0.0
2015-Jul-22 23:28N 66°22' E 012°22'0 0.0
2015-Jul-22 22:28N 66°22' E 012°22'0 0.0
2015-Jul-22 21:28N 66°22' E 012°22'0 0.0
2015-Jul-22 20:28N 66°22' E 012°22'0 0.0
2015-Jul-22 19:28N 66°22' E 012°22'0 0.0
2015-Jul-22 18:28N 66°22' E 012°22'0 0.0
2015-Jul-22 17:31N 66°22' E 012°22'0 0.0
2015-Jul-22 16:31N 66°22' E 012°22'0 0.0
2015-Jul-22 15:31N 66°22' E 012°22'0 0.0
2015-Jul-22 14:31N 66°22' E 012°22'0 0.0
2015-Jul-22 13:31N 66°22' E 012°22'0 0.0
2015-Jul-22 12:31N 66°22' E 012°22'0 0.0
2015-Jul-22 11:31N 66°22' E 012°22'0 0.0
2015-Jul-22 10:31N 66°22' E 012°22'0 0.0
2015-Jul-22 09:31N 66°22' E 012°22'0 0.0
2015-Jul-22 08:31N 66°22' E 012°22'0 0.0
2015-Jul-22 07:25N 66°22' E 012°22'0 0.0
2015-Jul-22 06:31N 66°22' E 012°22'0 0.0
2015-Jul-22 05:31N 66°22' E 012°22'0 0.0
2015-Jul-22 04:31N 66°22' E 012°22'0 0.0
2015-Jul-22 03:31N 66°22' E 012°22'0 0.0
2015-Jul-22 02:31N 66°22' E 012°22'0 0.0
2015-Jul-22 01:31N 66°22' E 012°22'0 0.0
2015-Jul-22 00:31N 66°22' E 012°22'0 0.0
2015-Jul-21 23:31N 66°22' E 012°22'0 0.0
2015-Jul-21 22:31N 66°22' E 012°22'0 0.0
2015-Jul-21 21:31N 66°22' E 012°22'0 0.0
2015-Jul-21 20:31N 66°22' E 012°22'0 0.0
2015-Jul-21 19:31N 66°22' E 012°22'0 0.0
2015-Jul-21 18:25N 66°22' E 012°22'0 0.0
2015-Jul-21 17:31N 66°22' E 012°22'0 0.0
2015-Jul-21 16:31N 66°22' E 012°22'0 0.0
2015-Jul-21 15:31N 66°22' E 012°22'0 0.0
2015-Jul-21 14:31N 66°22' E 012°22'0 0.0
2015-Jul-21 13:31N 66°22' E 012°22'  

Dump ship's entire track history